Time;durP1;ratioP1;P1;durP2;ratioP2;P2;SDS_P1;SDS_P2;PMS_P1;PMS_P2;Temp;Humidity;BMP_temperature;BMP_pressure;BME280_temperature;BME280_humidity;BME280_pressure;Samples;Min_cycle;Max_cycle;Signal;HPM_P1;HPM_P2
2023/10/17 00:02:27;;;;;;;4.30;2.17;;;;;;;;;;10452418;28;20312;-65
2023/10/17 00:07:28;;;;;;;3.85;1.30;;;;;;;;;;10439447;28;20030;-65
2023/10/17 00:12:39;;;;;;;2.20;2.00;;;;;;;;;;10440351;28;20029;-63
2023/10/17 00:17:40;;;;;;;7.93;2.05;;;;;;;;;;10441321;28;20033;-61
2023/10/17 00:22:42;;;;;;;4.15;2.00;;;;;;;;;;10448155;28;20041;-54
2023/10/17 00:27:43;;;;;;;1.60;1.50;;;;;;;;;;10443566;28;20033;-56
2023/10/17 00:32:44;;;;;;;2.22;1.67;;;;;;;;;;10441022;28;20029;-57
2023/10/17 00:37:54;;;;;;;1.92;1.48;;;;;;;;;;10446599;28;20377;-58
2023/10/17 00:42:54;;;;;;;3.10;1.65;;;;;;;;;;10445610;28;20061;-56
2023/10/17 00:47:56;;;;;;;2.67;1.60;;;;;;;;;;10444791;28;20036;-55
2023/10/17 00:52:57;;;;;;;3.17;1.58;;;;;;;;;;10437924;28;20028;-55
2023/10/17 00:57:58;;;;;;;2.58;1.58;;;;;;;;;;10445395;28;20068;-57
2023/10/17 01:03:02;;;;;;;2.17;1.50;;;;;;;;;;10428580;28;20506;-57
2023/10/17 01:08:02;;;;;;;2.92;1.30;;;;;;;;;;10446535;28;20505;-57
2023/10/17 01:13:03;;;;;;;2.15;1.52;;;;;;;;;;10417201;28;20029;-57
2023/10/17 01:18:04;;;;;;;3.50;1.45;;;;;;;;;;10435747;28;20472;-57
2023/10/17 01:23:05;;;;;;;3.50;1.92;;;;;;;;;;10447609;28;20041;-57
2023/10/17 01:28:06;;;;;;;9.00;1.27;;;;;;;;;;10444376;28;20099;-58
2023/10/17 01:33:08;;;;;;;1.40;1.30;;;;;;;;;;10428829;28;20025;-60
2023/10/17 01:38:08;;;;;;;2.83;1.60;;;;;;;;;;10436615;28;20029;-57
2023/10/17 01:43:10;;;;;;;2.13;1.60;;;;;;;;;;10436162;28;20021;-59
2023/10/17 01:48:11;;;;;;;1.45;1.17;;;;;;;;;;10430790;28;20021;-61
2023/10/17 01:53:12;;;;;;;3.60;1.23;;;;;;;;;;10447639;28;20028;-62
2023/10/17 01:58:15;;;;;;;2.08;1.25;;;;;;;;;;10431617;28;20471;-60
2023/10/17 02:03:16;;;;;;;1.65;1.30;;;;;;;;;;10441393;28;20017;-64
2023/10/17 02:08:21;;;;;;;4.15;1.73;;;;;;;;;;10447509;28;20036;-59
2023/10/17 02:13:22;;;;;;;1.33;1.23;;;;;;;;;;10435332;28;20032;-60
2023/10/17 02:18:23;;;;;;;1.35;1.25;;;;;;;;;;10445392;28;20094;-63
2023/10/17 02:23:27;;;;;;;2.15;1.40;;;;;;;;;;10443190;28;20036;-61
2023/10/17 02:28:28;;;;;;;1.50;1.40;;;;;;;;;;10447289;28;20044;-57
2023/10/17 02:33:30;;;;;;;1.30;1.20;;;;;;;;;;10447567;28;20039;-58
2023/10/17 02:38:31;;;;;;;2.42;1.30;;;;;;;;;;10448108;28;20064;-58
2023/10/17 02:43:37;;;;;;;2.17;1.25;;;;;;;;;;10446370;28;20033;-63
2023/10/17 02:48:40;;;;;;;1.50;1.17;;;;;;;;;;10443858;28;20148;-62
2023/10/17 02:53:43;;;;;;;1.30;1.20;;;;;;;;;;10437870;28;20094;-58
2023/10/17 02:58:59;;;;;;;2.00;1.50;;;;;;;;;;10450315;28;20066;-59
2023/10/17 03:04:23;;;;;;;1.42;1.33;;;;;;;;;;10438137;28;20041;-59
2023/10/17 03:19:43;;;;;;;2.03;1.10;;;;;;;;;;10432704;28;20057;-60
2023/10/17 03:24:48;;;;;;;1.42;1.20;;;;;;;;;;10445020;28;20033;-59
2023/10/17 03:29:48;;;;;;;1.63;1.23;;;;;;;;;;10443187;28;20080;-62
2023/10/17 03:34:58;;;;;;;2.15;1.10;;;;;;;;;;10449861;28;20098;-63
2023/10/17 03:40:15;;;;;;;1.27;1.17;;;;;;;;;;10453760;28;20056;-63
2023/10/17 03:50:32;;;;;;;1.10;0.90;;;;;;;;;;10452966;28;20031;-59
2023/10/17 03:55:35;;;;;;;1.40;1.10;;;;;;;;;;10453140;28;20522;-60
2023/10/17 04:00:44;;;;;;;1.30;1.20;;;;;;;;;;10453836;28;20052;-60
2023/10/17 04:05:50;;;;;;;1.10;1.00;;;;;;;;;;10444201;28;20192;-59
2023/10/17 04:11:07;;;;;;;1.40;1.15;;;;;;;;;;10450770;28;20029;-59
2023/10/17 04:16:14;;;;;;;2.35;1.00;;;;;;;;;;10451950;28;20025;-58
2023/10/17 04:21:26;;;;;;;1.00;0.90;;;;;;;;;;10439740;28;20144;-59
2023/10/17 04:26:34;;;;;;;1.85;1.27;;;;;;;;;;10438701;28;20021;-59
2023/10/17 04:31:36;;;;;;;3.40;1.08;;;;;;;;;;10447260;28;20029;-58
2023/10/17 04:36:39;;;;;;;1.02;1.00;;;;;;;;;;10454066;28;20028;-59
2023/10/17 04:47:16;;;;;;;1.20;1.10;;;;;;;;;;10443024;28;20060;-58
2023/10/17 04:52:21;;;;;;;1.55;0.98;;;;;;;;;;10448955;28;20029;-58
2023/10/17 04:57:21;;;;;;;1.15;1.10;;;;;;;;;;10439912;28;20033;-59
2023/10/17 06:16:53;;;;;;;1.10;1.00;;;;;;;;;;10439700;28;20028;-61
2023/10/17 06:27:12;;;;;;;1.33;0.80;;;;;;;;;;10438483;28;20475;-63
2023/10/17 06:37:36;;;;;;;1.65;0.93;;;;;;;;;;10431130;28;20052;-62
2023/10/17 06:42:39;;;;;;;2.25;1.20;;;;;;;;;;10441603;28;20032;-58
2023/10/17 06:47:47;;;;;;;0.88;0.88;;;;;;;;;;10446942;22;20571;-56
2023/10/17 06:57:51;;;;;;;7.38;1.10;;;;;;;;;;10399344;28;20029;-59
2023/10/17 07:02:56;;;;;;;2.70;1.10;;;;;;;;;;10398552;28;20034;-59
2023/10/17 07:07:59;;;;;;;4.97;1.50;;;;;;;;;;10405221;28;20029;-63
2023/10/17 07:24:33;;;;;;;3.00;1.33;;;;;;;;;;10402557;28;20408;-61
2023/10/17 07:29:33;;;;;;;6.75;1.70;;;;;;;;;;10388720;28;20536;-62
2023/10/17 07:34:34;;;;;;;9.73;1.60;;;;;;;;;;10402243;28;20026;-62
2023/10/17 07:39:37;;;;;;;4.65;1.75;;;;;;;;;;10385360;28;20038;-60
2023/10/17 07:44:41;;;;;;;2.40;1.50;;;;;;;;;;10399625;28;20033;-63
2023/10/17 07:49:41;;;;;;;5.13;1.52;;;;;;;;;;10393609;28;20046;-65
2023/10/17 07:54:55;;;;;;;4.68;1.75;;;;;;;;;;10400181;28;20495;-62
2023/10/17 07:59:58;;;;;;;7.90;2.58;;;;;;;;;;10397613;28;20095;-64
2023/10/17 08:05:16;;;;;;;11.32;1.95;;;;;;;;;;10388520;28;20025;-64
2023/10/17 08:10:29;;;;;;;8.35;1.80;;;;;;;;;;10393152;28;20026;-62
2023/10/17 08:15:46;;;;;;;2.28;1.50;;;;;;;;;;10382454;28;20029;-64
2023/10/17 08:26:10;;;;;;;3.08;1.58;;;;;;;;;;10403667;28;20025;-65
2023/10/17 08:31:27;;;;;;;2.20;1.67;;;;;;;;;;10407377;28;20447;-63
2023/10/17 08:36:59;;;;;;;5.65;1.52;;;;;;;;;;10406012;28;20049;-63
2023/10/17 08:42:12;;;;;;;2.13;1.70;;;;;;;;;;10405378;28;20063;-61
2023/10/17 08:47:19;;;;;;;6.22;1.92;;;;;;;;;;10406145;28;20519;-60
2023/10/17 08:52:28;;;;;;;7.78;1.70;;;;;;;;;;10403444;28;20029;-63
2023/10/17 08:57:30;;;;;;;6.35;1.63;;;;;;;;;;10407856;28;20488;-64
2023/10/17 09:02:32;;;;;;;1.98;1.42;;;;;;;;;;10396524;28;20028;-63
2023/10/17 09:07:35;;;;;;;2.72;1.65;;;;;;;;;;10404098;28;20104;-66
2023/10/17 09:13:14;;;;;;;5.38;1.52;;;;;;;;;;10400994;28;20033;-65
2023/10/17 09:18:08;;;;;;;2.97;1.63;;;;;;;;;;10405357;28;20060;-63
2023/10/17 09:23:30;;;;;;;2.40;1.48;;;;;;;;;;10403310;28;20080;-67
2023/10/17 09:28:32;;;;;;;2.97;1.60;;;;;;;;;;10399364;28;20319;-65
2023/10/17 09:33:35;;;;;;;8.32;1.70;;;;;;;;;;10396878;28;20037;-67
2023/10/17 09:38:43;;;;;;;2.22;1.50;;;;;;;;;;10403733;28;20448;-65
2023/10/17 09:43:50;;;;;;;4.93;1.75;;;;;;;;;;10398607;28;20493;-65
2023/10/17 09:48:52;;;;;;;4.20;1.40;;;;;;;;;;10400973;28;20046;-66
2023/10/17 09:53:58;;;;;;;4.57;1.67;;;;;;;;;;10393111;28;20029;-64
2023/10/17 09:59:12;;;;;;;2.60;1.73;;;;;;;;;;10397689;28;20029;-65
2023/10/17 10:04:13;;;;;;;2.55;1.42;;;;;;;;;;10384962;28;20392;-63
2023/10/17 10:09:13;;;;;;;3.20;1.30;;;;;;;;;;10397755;28;20026;-66
2023/10/17 10:14:23;;;;;;;2.63;1.25;;;;;;;;;;10385597;28;20497;-63
2023/10/17 10:19:46;;;;;;;1.42;1.08;;;;;;;;;;10389134;28;20033;-64
2023/10/17 10:25:02;;;;;;;2.00;1.55;;;;;;;;;;10383776;28;20479;-64
2023/10/17 10:30:33;;;;;;;2.42;1.15;;;;;;;;;;10397930;28;20816;-64
2023/10/17 10:35:34;;;;;;;3.78;1.23;;;;;;;;;;10392840;28;20116;-63
2023/10/17 10:40:39;;;;;;;3.78;1.48;;;;;;;;;;10394013;28;20041;-66
2023/10/17 10:45:42;;;;;;;3.25;1.80;;;;;;;;;;10390342;28;20041;-63
2023/10/17 10:50:45;;;;;;;1.70;1.30;;;;;;;;;;10402354;28;20087;-65
2023/10/17 10:55:59;;;;;;;1.60;1.30;;;;;;;;;;10395521;28;20030;-67
2023/10/17 11:01:03;;;;;;;3.70;1.33;;;;;;;;;;10399947;28;20032;-65
2023/10/17 11:06:03;;;;;;;1.25;1.15;;;;;;;;;;10396812;28;20148;-60
2023/10/17 11:11:05;;;;;;;6.75;1.75;;;;;;;;;;10388181;28;20029;-65
2023/10/17 11:16:07;;;;;;;3.45;1.30;;;;;;;;;;10396290;28;20030;-66
2023/10/17 11:21:08;;;;;;;1.30;1.20;;;;;;;;;;10391341;28;20116;-66
2023/10/17 11:26:11;;;;;;;2.47;1.42;;;;;;;;;;10386126;28;20075;-65
2023/10/17 11:31:21;;;;;;;1.90;1.23;;;;;;;;;;10395216;28;20026;-65
2023/10/17 11:36:23;;;;;;;3.05;1.50;;;;;;;;;;10377380;28;20052;-66
2023/10/17 11:41:40;;;;;;;4.93;1.38;;;;;;;;;;10388346;28;20039;-63
2023/10/17 11:46:49;;;;;;;2.10;1.10;;;;;;;;;;10394498;28;20539;-62
2023/10/17 11:52:04;;;;;;;16.75;1.70;;;;;;;;;;10390095;28;20048;-62
2023/10/17 11:57:14;;;;;;;1.60;1.17;;;;;;;;;;10396873;28;20041;-63
2023/10/17 12:02:14;;;;;;;1.40;1.30;;;;;;;;;;10404314;28;20581;-62
2023/10/17 12:07:15;;;;;;;1.75;1.23;;;;;;;;;;10395476;28;20029;-64
2023/10/17 12:12:19;;;;;;;2.80;1.10;;;;;;;;;;10399918;28;20057;-63
2023/10/17 12:17:20;;;;;;;1.30;1.20;;;;;;;;;;10395081;28;20057;-63
2023/10/17 12:22:20;;;;;;;2.58;1.15;;;;;;;;;;10397973;28;20344;-64
2023/10/17 12:27:21;;;;;;;1.70;1.20;;;;;;;;;;10397104;28;20257;-63
2023/10/17 12:32:21;;;;;;;2.13;1.38;;;;;;;;;;10399910;28;20488;-63
2023/10/17 12:37:22;;;;;;;1.88;1.17;;;;;;;;;;10398379;28;20389;-63
2023/10/17 12:42:23;;;;;;;5.28;1.30;;;;;;;;;;10400927;28;20374;-63
2023/10/17 12:47:24;;;;;;;1.80;1.30;;;;;;;;;;10398485;28;20080;-64
2023/10/17 12:52:24;;;;;;;4.63;1.45;;;;;;;;;;10393055;28;20041;-63
2023/10/17 12:57:25;;;;;;;4.18;1.55;;;;;;;;;;10396383;28;20377;-62
2023/10/17 13:02:29;;;;;;;2.60;1.10;;;;;;;;;;10400224;28;20068;-65
2023/10/17 13:07:29;;;;;;;1.50;1.20;;;;;;;;;;10398128;28;20492;-63
2023/10/17 13:12:30;;;;;;;2.60;1.48;;;;;;;;;;10375776;28;20068;-64
2023/10/17 13:17:32;;;;;;;3.55;1.27;;;;;;;;;;10390941;28;20116;-63
2023/10/17 13:22:37;;;;;;;3.65;1.35;;;;;;;;;;10402507;28;20394;-66
2023/10/17 13:27:38;;;;;;;1.73;1.10;;;;;;;;;;10402326;28;20029;-64
2023/10/17 13:32:38;;;;;;;4.05;1.40;;;;;;;;;;10404489;28;20092;-64
2023/10/17 13:37:51;;;;;;;1.58;1.10;;;;;;;;;;10403565;28;20481;-63
2023/10/17 13:42:53;;;;;;;2.85;1.30;;;;;;;;;;10395825;28;20223;-64
2023/10/17 13:47:54;;;;;;;13.68;1.80;;;;;;;;;;10396948;28;20504;-66
2023/10/17 13:53:06;;;;;;;2.08;1.35;;;;;;;;;;10402931;28;20053;-67
2023/10/17 13:58:07;;;;;;;2.67;1.45;;;;;;;;;;10400093;28;20134;-59
2023/10/17 14:03:12;;;;;;;7.00;1.50;;;;;;;;;;10400486;28;20044;-59
2023/10/17 14:08:18;;;;;;;5.28;1.50;;;;;;;;;;10401947;28;20488;-60
2023/10/17 14:13:20;;;;;;;3.22;1.50;;;;;;;;;;10388485;28;20037;-63
2023/10/17 14:18:29;;;;;;;6.28;1.70;;;;;;;;;;10404634;28;20484;-61
2023/10/17 14:23:32;;;;;;;7.38;1.30;;;;;;;;;;10390701;28;20535;-62
2023/10/17 14:28:34;;;;;;;7.97;1.30;;;;;;;;;;10391687;28;20036;-63
2023/10/17 14:33:34;;;;;;;3.92;1.52;;;;;;;;;;10385894;28;20722;-66
2023/10/17 14:38:35;;;;;;;10.90;1.42;;;;;;;;;;10399645;28;20037;-65
2023/10/17 14:43:36;;;;;;;6.30;1.55;;;;;;;;;;10397909;28;20029;-62
2023/10/17 14:48:37;;;;;;;2.10;1.42;;;;;;;;;;10399443;28;20542;-63
2023/10/17 14:53:42;;;;;;;3.42;1.35;;;;;;;;;;10401709;28;20390;-59
2023/10/17 14:58:46;;;;;;;6.40;1.60;;;;;;;;;;10396293;28;20436;-63
2023/10/17 15:03:47;;;;;;;7.13;1.30;;;;;;;;;;10393853;28;20034;-66
2023/10/17 15:08:48;;;;;;;7.97;1.60;;;;;;;;;;10397383;28;20059;-63
2023/10/17 15:13:49;;;;;;;5.07;1.70;;;;;;;;;;10377543;28;20049;-63
2023/10/17 15:18:51;;;;;;;8.88;1.42;;;;;;;;;;10389594;28;20033;-64
2023/10/17 15:23:52;;;;;;;7.55;1.70;;;;;;;;;;10360143;28;20029;-63
2023/10/17 15:28:53;;;;;;;4.50;1.40;;;;;;;;;;10401113;28;20037;-64
2023/10/17 15:33:55;;;;;;;4.25;1.23;;;;;;;;;;10395592;28;20146;-63
2023/10/17 15:38:56;;;;;;;9.23;1.65;;;;;;;;;;10407143;28;20455;-64
2023/10/17 15:43:56;;;;;;;2.65;1.45;;;;;;;;;;10391932;28;20042;-64
2023/10/17 15:48:57;;;;;;;3.97;1.33;;;;;;;;;;10396636;28;20504;-64
2023/10/17 15:53:57;;;;;;;6.25;1.33;;;;;;;;;;10405262;28;20476;-64
2023/10/17 15:58:58;;;;;;;2.95;1.27;;;;;;;;;;10396230;28;20484;-63
2023/10/17 16:03:59;;;;;;;3.88;1.27;;;;;;;;;;10382110;28;20030;-64
2023/10/17 16:08:59;;;;;;;1.92;1.15;;;;;;;;;;10407322;28;20026;-62
2023/10/17 16:14:03;;;;;;;3.35;1.17;;;;;;;;;;10392929;28;20034;-63
2023/10/17 16:19:04;;;;;;;2.25;1.35;;;;;;;;;;10393244;28;20424;-61
2023/10/17 16:24:06;;;;;;;2.45;1.20;;;;;;;;;;10375406;28;20057;-61
2023/10/17 16:29:07;;;;;;;3.85;1.40;;;;;;;;;;10401640;28;20045;-65
2023/10/17 16:34:08;;;;;;;4.55;1.13;;;;;;;;;;10394082;28;20579;-66
2023/10/17 16:39:08;;;;;;;8.45;1.35;;;;;;;;;;10398896;28;20496;-65
2023/10/17 16:44:10;;;;;;;2.67;1.40;;;;;;;;;;10396339;28;20044;-66
2023/10/17 16:49:10;;;;;;;3.03;1.38;;;;;;;;;;10383581;28;20057;-65
2023/10/17 16:54:11;;;;;;;6.57;1.63;;;;;;;;;;10392823;28;20041;-66
2023/10/17 16:59:12;;;;;;;2.35;1.50;;;;;;;;;;10402416;28;20060;-64
2023/10/17 17:04:13;;;;;;;3.92;1.20;;;;;;;;;;10407210;28;20052;-64
2023/10/17 17:09:19;;;;;;;3.47;1.25;;;;;;;;;;10391707;28;20025;-64
2023/10/17 17:14:20;;;;;;;6.65;1.40;;;;;;;;;;10399481;28;20034;-64
2023/10/17 17:19:22;;;;;;;1.98;1.20;;;;;;;;;;10403866;28;20623;-60
2023/10/17 17:24:43;;;;;;;3.25;1.40;;;;;;;;;;10405088;28;20512;-61
2023/10/17 17:29:50;;;;;;;1.88;1.33;;;;;;;;;;10278120;28;20053;-64
2023/10/17 17:34:53;;;;;;;3.35;1.27;;;;;;;;;;10278145;28;20115;-61
2023/10/17 17:39:53;;;;;;;4.82;1.30;;;;;;;;;;10280470;28;20117;-63
2023/10/17 17:44:56;;;;;;;3.97;1.73;;;;;;;;;;10271663;28;20043;-64
2023/10/17 17:49:57;;;;;;;2.58;1.60;;;;;;;;;;10273277;28;20097;-60
2023/10/17 17:54:58;;;;;;;3.03;1.65;;;;;;;;;;10270024;28;20097;-62
2023/10/17 17:59:58;;;;;;;3.67;1.60;;;;;;;;;;10267836;28;20046;-63
2023/10/17 18:04:59;;;;;;;4.25;2.17;;;;;;;;;;10324766;28;20489;-61
2023/10/17 18:09:59;;;;;;;2.70;1.60;;;;;;;;;;10401125;28;20503;-60
2023/10/17 18:15:00;;;;;;;5.13;1.95;;;;;;;;;;10398246;28;20033;-62
2023/10/17 18:20:01;;;;;;;2.70;1.60;;;;;;;;;;10393759;28;20496;-59
2023/10/17 18:25:02;;;;;;;4.30;2.00;;;;;;;;;;10363751;28;20492;-59
2023/10/17 18:30:03;;;;;;;5.20;2.22;;;;;;;;;;10387860;28;20030;-59
2023/10/17 18:35:04;;;;;;;3.92;1.98;;;;;;;;;;10395846;28;20033;-60
2023/10/17 18:40:11;;;;;;;3.72;1.98;;;;;;;;;;10395177;28;20025;-63
2023/10/17 18:45:14;;;;;;;13.35;2.30;;;;;;;;;;10402481;28;20068;-65
2023/10/17 18:50:15;;;;;;;7.00;2.03;;;;;;;;;;10399824;28;20044;-62
2023/10/17 18:55:16;;;;;;;6.65;2.08;;;;;;;;;;10388182;28;20025;-62
2023/10/17 19:00:19;;;;;;;12.93;2.28;;;;;;;;;;10400730;28;20029;-61
2023/10/17 19:05:20;;;;;;;5.30;1.83;;;;;;;;;;10402780;28;20504;-60
2023/10/17 19:10:22;;;;;;;6.93;2.90;;;;;;;;;;10388261;28;20056;-64
2023/10/17 19:15:23;;;;;;;8.57;2.03;;;;;;;;;;10388928;28;20038;-65
2023/10/17 19:20:24;;;;;;;5.63;2.13;;;;;;;;;;10399375;28;20029;-64
2023/10/17 19:25:28;;;;;;;4.95;2.33;;;;;;;;;;10399656;28;20025;-63
2023/10/17 19:30:30;;;;;;;4.88;1.98;;;;;;;;;;10399232;28;20038;-63
2023/10/17 19:35:32;;;;;;;5.18;2.47;;;;;;;;;;10399401;28;20388;-63
2023/10/17 19:40:32;;;;;;;6.85;2.45;;;;;;;;;;10395017;28;20034;-64
2023/10/17 19:45:33;;;;;;;8.65;2.60;;;;;;;;;;10393632;28;20033;-65
2023/10/17 19:50:35;;;;;;;5.43;2.50;;;;;;;;;;10394012;28;20068;-64
2023/10/17 19:55:40;;;;;;;6.95;2.20;;;;;;;;;;10390843;28;20040;-64
2023/10/17 20:00:41;;;;;;;6.05;2.42;;;;;;;;;;10389490;28;20079;-65
2023/10/17 20:05:43;;;;;;;5.57;2.47;;;;;;;;;;10381381;28;20045;-64
2023/10/17 20:10:44;;;;;;;7.25;2.65;;;;;;;;;;10393443;28;20033;-64
2023/10/17 20:15:44;;;;;;;7.07;2.70;;;;;;;;;;10403917;28;20400;-64
2023/10/17 20:20:46;;;;;;;6.10;2.25;;;;;;;;;;10411329;28;20022;-64
2023/10/17 20:25:54;;;;;;;8.27;2.30;;;;;;;;;;10406930;28;20112;-61
2023/10/17 20:30:54;;;;;;;5.87;2.57;;;;;;;;;;10399140;28;20022;-64
2023/10/17 20:36:02;;;;;;;6.40;2.90;;;;;;;;;;10379706;28;20033;-65
2023/10/17 20:41:06;;;;;;;6.28;3.08;;;;;;;;;;10400322;28;20036;-65
2023/10/17 20:46:06;;;;;;;6.65;2.80;;;;;;;;;;10406074;28;20030;-65
2023/10/17 20:51:07;;;;;;;4.50;2.45;;;;;;;;;;10408030;28;20055;-64
2023/10/17 20:56:14;;;;;;;7.15;2.58;;;;;;;;;;10401134;28;20033;-62
2023/10/17 21:01:16;;;;;;;5.53;3.13;;;;;;;;;;10403803;28;20022;-63
2023/10/17 21:06:16;;;;;;;5.53;2.60;;;;;;;;;;10406846;28;20021;-60
2023/10/17 21:11:20;;;;;;;4.65;2.58;;;;;;;;;;10406181;28;20427;-64
2023/10/17 21:16:21;;;;;;;5.88;2.63;;;;;;;;;;10395831;28;20029;-63
2023/10/17 21:21:22;;;;;;;6.57;3.00;;;;;;;;;;10398459;28;20420;-65
2023/10/17 21:26:23;;;;;;;7.13;3.00;;;;;;;;;;10406096;28;20026;-65
2023/10/17 21:31:24;;;;;;;4.43;2.63;;;;;;;;;;10400247;28;20038;-64
2023/10/17 21:36:25;;;;;;;7.78;2.65;;;;;;;;;;10378854;28;20037;-64
2023/10/17 21:41:25;;;;;;;5.53;2.70;;;;;;;;;;10391126;28;20500;-64
2023/10/17 21:46:26;;;;;;;6.15;2.90;;;;;;;;;;10392656;28;20034;-60
2023/10/17 21:51:26;;;;;;;7.78;2.65;;;;;;;;;;10393095;28;20042;-60
2023/10/17 21:56:27;;;;;;;4.40;2.80;;;;;;;;;;10394608;28;20692;-60
2023/10/17 22:01:28;;;;;;;6.40;2.72;;;;;;;;;;10401713;28;20032;-60
2023/10/17 22:06:29;;;;;;;10.48;2.58;;;;;;;;;;10403070;28;20029;-60
2023/10/17 22:11:30;;;;;;;11.32;2.63;;;;;;;;;;10403039;28;20036;-60
2023/10/17 22:16:31;;;;;;;8.68;3.10;;;;;;;;;;10406359;28;20056;-60
2023/10/17 22:21:33;;;;;;;3.10;2.35;;;;;;;;;;10404417;28;20052;-62
2023/10/17 22:26:33;;;;;;;12.80;2.78;;;;;;;;;;10403568;28;20029;-62
2023/10/17 22:31:34;;;;;;;24.52;3.00;;;;;;;;;;10403732;28;20029;-62
2023/10/17 22:36:34;;;;;;;9.43;2.55;;;;;;;;;;10402576;28;20026;-62
2023/10/17 22:41:35;;;;;;;6.63;2.72;;;;;;;;;;10405018;28;20441;-61
2023/10/17 22:46:36;;;;;;;4.95;2.55;;;;;;;;;;10386209;28;20044;-60
2023/10/17 22:51:37;;;;;;;3.88;2.55;;;;;;;;;;10404718;28;20049;-60
2023/10/17 22:56:37;;;;;;;6.40;2.63;;;;;;;;;;10401288;28;20044;-60
2023/10/17 23:01:38;;;;;;;6.78;2.33;;;;;;;;;;10404566;28;20029;-61
2023/10/17 23:06:39;;;;;;;8.30;2.33;;;;;;;;;;10402544;28;20075;-60
2023/10/17 23:11:39;;;;;;;4.50;2.40;;;;;;;;;;10403154;28;20021;-60
2023/10/17 23:16:40;;;;;;;4.13;2.50;;;;;;;;;;10401726;28;20040;-62
2023/10/17 23:21:41;;;;;;;5.15;2.72;;;;;;;;;;10405057;28;20032;-62
2023/10/17 23:26:42;;;;;;;5.55;2.42;;;;;;;;;;10401170;28;20025;-61
2023/10/17 23:31:42;;;;;;;13.55;2.20;;;;;;;;;;10401727;28;20032;-62
2023/10/17 23:36:43;;;;;;;3.85;2.45;;;;;;;;;;10393306;28;20026;-63
2023/10/17 23:41:45;;;;;;;4.75;2.58;;;;;;;;;;10399295;28;20057;-60
2023/10/17 23:46:46;;;;;;;5.30;2.30;;;;;;;;;;10406999;28;20139;-62
2023/10/17 23:51:46;;;;;;;4.30;2.08;;;;;;;;;;10409880;28;20051;-61
2023/10/17 23:56:48;;;;;;;3.45;1.90;;;;;;;;;;10407365;28;20045;-60
